sensor_id;sensor_type;location;lat;lon;timestamp;P1;durP1;ratioP1;P2;durP2;ratioP2
61104;SDS011;46987;32.638;-115.438;2022-07-24T00:00:06;20.58;;;3.55;;
61104;SDS011;46987;32.638;-115.438;2022-07-24T00:02:40;15.77;;;3.00;;
61104;SDS011;46987;32.638;-115.438;2022-07-24T00:05:07;15.43;;;2.90;;
61104;SDS011;46987;32.638;-115.438;2022-07-24T00:07:35;18.02;;;3.13;;
61104;SDS011;46987;32.638;-115.438;2022-07-24T00:10:05;14.80;;;3.35;;
61104;SDS011;46987;32.638;-115.438;2022-07-24T00:12:35;17.20;;;3.40;;
61104;SDS011;46987;32.638;-115.438;2022-07-24T00:15:03;15.68;;;3.42;;
61104;SDS011;46987;32.638;-115.438;2022-07-24T00:17:37;17.38;;;3.42;;
61104;SDS011;46987;32.638;-115.438;2022-07-24T00:20:05;19.52;;;3.63;;
61104;SDS011;46987;32.638;-115.438;2022-07-24T00:22:35;13.23;;;2.80;;
61104;SDS011;46987;32.638;-115.438;2022-07-24T00:25:05;19.48;;;3.50;;
61104;SDS011;46987;32.638;-115.438;2022-07-24T00:27:32;13.57;;;2.85;;
61104;SDS011;46987;32.638;-115.438;2022-07-24T00:30:00;16.20;;;3.45;;
61104;SDS011;46987;32.638;-115.438;2022-07-24T00:32:27;13.70;;;2.75;;
61104;SDS011;46987;32.638;-115.438;2022-07-24T00:34:54;18.65;;;3.40;;
61104;SDS011;46987;32.638;-115.438;2022-07-24T00:37:22;16.85;;;3.00;;
61104;SDS011;46987;32.638;-115.438;2022-07-24T00:39:49;12.38;;;3.00;;
61104;SDS011;46987;32.638;-115.438;2022-07-24T00:42:18;9.93;;;2.80;;
61104;SDS011;46987;32.638;-115.438;2022-07-24T00:44:45;14.70;;;3.05;;
61104;SDS011;46987;32.638;-115.438;2022-07-24T00:47:13;15.00;;;2.35;;
61104;SDS011;46987;32.638;-115.438;2022-07-24T00:49:40;15.40;;;3.28;;
61104;SDS011;46987;32.638;-115.438;2022-07-24T00:52:07;21.95;;;3.72;;
61104;SDS011;46987;32.638;-115.438;2022-07-24T00:54:34;12.27;;;2.33;;
61104;SDS011;46987;32.638;-115.438;2022-07-24T00:57:02;17.80;;;3.35;;
61104;SDS011;46987;32.638;-115.438;2022-07-24T00:59:31;14.73;;;3.75;;
61104;SDS011;46987;32.638;-115.438;2022-07-24T01:01:58;13.55;;;3.13;;
61104;SDS011;46987;32.638;-115.438;2022-07-24T01:04:25;15.80;;;3.55;;
61104;SDS011;46987;32.638;-115.438;2022-07-24T01:06:53;17.17;;;3.40;;
61104;SDS011;46987;32.638;-115.438;2022-07-24T01:09:20;14.40;;;3.35;;
61104;SDS011;46987;32.638;-115.438;2022-07-24T01:11:48;13.93;;;3.05;;
61104;SDS011;46987;32.638;-115.438;2022-07-24T01:14:17;20.45;;;3.85;;
61104;SDS011;46987;32.638;-115.438;2022-07-24T01:16:46;17.20;;;3.55;;
61104;SDS011;46987;32.638;-115.438;2022-07-24T01:19:13;21.23;;;4.10;;
61104;SDS011;46987;32.638;-115.438;2022-07-24T01:21:46;21.02;;;3.90;;
61104;SDS011;46987;32.638;-115.438;2022-07-24T01:24:14;23.35;;;4.45;;
61104;SDS011;46987;32.638;-115.438;2022-07-24T01:26:42;14.52;;;3.28;;
61104;SDS011;46987;32.638;-115.438;2022-07-24T01:29:09;19.65;;;3.75;;
61104;SDS011;46987;32.638;-115.438;2022-07-24T01:31:36;39.97;;;5.22;;
61104;SDS011;46987;32.638;-115.438;2022-07-24T01:34:04;19.50;;;3.38;;
61104;SDS011;46987;32.638;-115.438;2022-07-24T01:36:32;17.48;;;3.47;;
61104;SDS011;46987;32.638;-115.438;2022-07-24T01:39:01;21.27;;;4.43;;
61104;SDS011;46987;32.638;-115.438;2022-07-24T01:41:29;22.23;;;3.75;;
61104;SDS011;46987;32.638;-115.438;2022-07-24T01:43:56;17.58;;;3.47;;
61104;SDS011;46987;32.638;-115.438;2022-07-24T01:46:24;21.77;;;4.03;;
61104;SDS011;46987;32.638;-115.438;2022-07-24T01:48:51;23.98;;;4.30;;
61104;SDS011;46987;32.638;-115.438;2022-07-24T01:51:18;21.42;;;3.80;;
61104;SDS011;46987;32.638;-115.438;2022-07-24T01:53:45;16.55;;;3.47;;
61104;SDS011;46987;32.638;-115.438;2022-07-24T01:56:14;15.93;;;3.88;;
61104;SDS011;46987;32.638;-115.438;2022-07-24T01:58:41;17.30;;;3.78;;
61104;SDS011;46987;32.638;-115.438;2022-07-24T02:01:09;20.15;;;3.92;;
61104;SDS011;46987;32.638;-115.438;2022-07-24T02:03:36;13.45;;;3.30;;
61104;SDS011;46987;32.638;-115.438;2022-07-24T02:06:04;15.40;;;3.53;;
61104;SDS011;46987;32.638;-115.438;2022-07-24T02:08:32;13.95;;;3.50;;
61104;SDS011;46987;32.638;-115.438;2022-07-24T02:10:59;17.77;;;3.70;;
61104;SDS011;46987;32.638;-115.438;2022-07-24T02:13:32;21.27;;;3.50;;
61104;SDS011;46987;32.638;-115.438;2022-07-24T02:15:59;15.95;;;3.92;;
61104;SDS011;46987;32.638;-115.438;2022-07-24T02:18:26;18.52;;;3.88;;
61104;SDS011;46987;32.638;-115.438;2022-07-24T02:20:54;15.48;;;3.80;;
61104;SDS011;46987;32.638;-115.438;2022-07-24T02:23:21;18.45;;;3.70;;
61104;SDS011;46987;32.638;-115.438;2022-07-24T02:25:49;15.63;;;3.50;;
61104;SDS011;46987;32.638;-115.438;2022-07-24T02:28:17;14.95;;;3.30;;
61104;SDS011;46987;32.638;-115.438;2022-07-24T02:30:46;15.52;;;3.28;;
61104;SDS011;46987;32.638;-115.438;2022-07-24T02:33:14;15.43;;;3.33;;
61104;SDS011;46987;32.638;-115.438;2022-07-24T02:35:41;13.38;;;3.38;;
61104;SDS011;46987;32.638;-115.438;2022-07-24T02:38:08;17.60;;;3.22;;
61104;SDS011;46987;32.638;-115.438;2022-07-24T02:40:35;16.85;;;3.42;;
61104;SDS011;46987;32.638;-115.438;2022-07-24T02:43:03;19.65;;;4.40;;
61104;SDS011;46987;32.638;-115.438;2022-07-24T02:45:30;13.48;;;3.25;;
61104;SDS011;46987;32.638;-115.438;2022-07-24T02:47:59;19.10;;;4.43;;
61104;SDS011;46987;32.638;-115.438;2022-07-24T02:50:29;14.63;;;3.75;;
61104;SDS011;46987;32.638;-115.438;2022-07-24T02:52:57;20.60;;;4.53;;
61104;SDS011;46987;32.638;-115.438;2022-07-24T02:55:25;18.70;;;4.18;;
61104;SDS011;46987;32.638;-115.438;2022-07-24T02:57:54;15.73;;;3.55;;
61104;SDS011;46987;32.638;-115.438;2022-07-24T03:00:21;16.63;;;3.35;;
61104;SDS011;46987;32.638;-115.438;2022-07-24T03:02:49;13.07;;;3.17;;
61104;SDS011;46987;32.638;-115.438;2022-07-24T03:05:18;14.23;;;3.35;;
61104;SDS011;46987;32.638;-115.438;2022-07-24T03:07:46;12.57;;;3.20;;
61104;SDS011;46987;32.638;-115.438;2022-07-24T03:10:14;16.95;;;3.53;;
61104;SDS011;46987;32.638;-115.438;2022-07-24T03:12:42;16.08;;;3.85;;
61104;SDS011;46987;32.638;-115.438;2022-07-24T03:15:10;15.25;;;3.67;;
61104;SDS011;46987;32.638;-115.438;2022-07-24T03:17:47;13.45;;;3.58;;
61104;SDS011;46987;32.638;-115.438;2022-07-24T03:20:16;12.27;;;3.30;;
61104;SDS011;46987;32.638;-115.438;2022-07-24T03:22:45;13.70;;;3.38;;
61104;SDS011;46987;32.638;-115.438;2022-07-24T03:25:13;18.38;;;3.10;;
61104;SDS011;46987;32.638;-115.438;2022-07-24T03:27:41;12.32;;;2.92;;
61104;SDS011;46987;32.638;-115.438;2022-07-24T03:30:09;14.77;;;3.22;;
61104;SDS011;46987;32.638;-115.438;2022-07-24T03:32:37;15.32;;;3.60;;
61104;SDS011;46987;32.638;-115.438;2022-07-24T03:35:05;15.95;;;3.70;;
61104;SDS011;46987;32.638;-115.438;2022-07-24T03:37:35;15.05;;;3.92;;
61104;SDS011;46987;32.638;-115.438;2022-07-24T03:40:03;10.50;;;3.17;;
61104;SDS011;46987;32.638;-115.438;2022-07-24T03:42:31;18.30;;;4.10;;
61104;SDS011;46987;32.638;-115.438;2022-07-24T03:44:58;14.82;;;4.55;;
61104;SDS011;46987;32.638;-115.438;2022-07-24T03:47:26;23.35;;;3.83;;
61104;SDS011;46987;32.638;-115.438;2022-07-24T03:49:53;16.60;;;4.40;;
61104;SDS011;46987;32.638;-115.438;2022-07-24T03:52:21;14.10;;;5.03;;
61104;SDS011;46987;32.638;-115.438;2022-07-24T03:54:51;14.95;;;3.92;;
61104;SDS011;46987;32.638;-115.438;2022-07-24T03:57:22;18.73;;;4.25;;
61104;SDS011;46987;32.638;-115.438;2022-07-24T03:59:49;14.30;;;3.45;;
61104;SDS011;46987;32.638;-115.438;2022-07-24T04:02:16;20.73;;;4.07;;
61104;SDS011;46987;32.638;-115.438;2022-07-24T04:04:44;19.42;;;4.47;;
61104;SDS011;46987;32.638;-115.438;2022-07-24T04:07:11;16.02;;;4.40;;
61104;SDS011;46987;32.638;-115.438;2022-07-24T04:09:38;17.58;;;4.20;;
61104;SDS011;46987;32.638;-115.438;2022-07-24T04:12:07;15.30;;;4.35;;
61104;SDS011;46987;32.638;-115.438;2022-07-24T04:14:35;17.77;;;4.25;;
61104;SDS011;46987;32.638;-115.438;2022-07-24T04:17:02;13.73;;;3.92;;
61104;SDS011;46987;32.638;-115.438;2022-07-24T04:19:30;18.85;;;4.88;;
61104;SDS011;46987;32.638;-115.438;2022-07-24T04:21:57;13.48;;;4.95;;
61104;SDS011;46987;32.638;-115.438;2022-07-24T04:24:25;18.13;;;5.70;;
61104;SDS011;46987;32.638;-115.438;2022-07-24T04:26:52;17.48;;;5.55;;
61104;SDS011;46987;32.638;-115.438;2022-07-24T04:29:21;16.05;;;5.28;;
61104;SDS011;46987;32.638;-115.438;2022-07-24T04:31:48;18.52;;;5.57;;
61104;SDS011;46987;32.638;-115.438;2022-07-24T04:34:16;20.13;;;6.43;;
61104;SDS011;46987;32.638;-115.438;2022-07-24T04:36:43;20.27;;;5.80;;
61104;SDS011;46987;32.638;-115.438;2022-07-24T04:39:10;18.08;;;5.28;;
61104;SDS011;46987;32.638;-115.438;2022-07-24T04:41:38;14.63;;;4.28;;
61104;SDS011;46987;32.638;-115.438;2022-07-24T04:44:05;16.42;;;4.68;;
61104;SDS011;46987;32.638;-115.438;2022-07-24T04:46:36;14.00;;;4.55;;
61104;SDS011;46987;32.638;-115.438;2022-07-24T04:49:03;16.55;;;4.57;;
61104;SDS011;46987;32.638;-115.438;2022-07-24T04:51:31;21.77;;;5.28;;
61104;SDS011;46987;32.638;-115.438;2022-07-24T04:53:58;20.45;;;4.57;;
61104;SDS011;46987;32.638;-115.438;2022-07-24T04:56:25;20.73;;;5.80;;
61104;SDS011;46987;32.638;-115.438;2022-07-24T04:58:56;20.83;;;6.07;;
61104;SDS011;46987;32.638;-115.438;2022-07-24T05:01:23;19.45;;;5.85;;
61104;SDS011;46987;32.638;-115.438;2022-07-24T05:03:52;16.08;;;6.38;;
61104;SDS011;46987;32.638;-115.438;2022-07-24T05:06:22;14.35;;;5.05;;
61104;SDS011;46987;32.638;-115.438;2022-07-24T05:08:50;17.40;;;5.68;;
61104;SDS011;46987;32.638;-115.438;2022-07-24T05:11:17;17.98;;;5.60;;
61104;SDS011;46987;32.638;-115.438;2022-07-24T05:13:44;19.30;;;6.05;;
61104;SDS011;46987;32.638;-115.438;2022-07-24T05:16:11;24.88;;;6.57;;
61104;SDS011;46987;32.638;-115.438;2022-07-24T05:18:39;18.73;;;5.82;;
61104;SDS011;46987;32.638;-115.438;2022-07-24T05:21:07;23.33;;;6.50;;
61104;SDS011;46987;32.638;-115.438;2022-07-24T05:23:35;20.40;;;6.22;;
61104;SDS011;46987;32.638;-115.438;2022-07-24T05:26:02;19.98;;;5.80;;
61104;SDS011;46987;32.638;-115.438;2022-07-24T05:28:30;16.88;;;5.63;;
61104;SDS011;46987;32.638;-115.438;2022-07-24T05:30:59;18.33;;;5.13;;
61104;SDS011;46987;32.638;-115.438;2022-07-24T05:33:26;16.02;;;5.72;;
61104;SDS011;46987;32.638;-115.438;2022-07-24T05:35:53;17.38;;;5.25;;
61104;SDS011;46987;32.638;-115.438;2022-07-24T05:38:22;20.77;;;5.55;;
61104;SDS011;46987;32.638;-115.438;2022-07-24T05:40:50;16.30;;;4.70;;
61104;SDS011;46987;32.638;-115.438;2022-07-24T05:43:18;17.63;;;5.75;;
61104;SDS011;46987;32.638;-115.438;2022-07-24T05:45:45;17.98;;;5.13;;
61104;SDS011;46987;32.638;-115.438;2022-07-24T05:48:12;18.15;;;5.15;;
61104;SDS011;46987;32.638;-115.438;2022-07-24T05:50:40;21.15;;;5.00;;
61104;SDS011;46987;32.638;-115.438;2022-07-24T05:53:07;17.73;;;4.78;;
61104;SDS011;46987;32.638;-115.438;2022-07-24T05:55:36;15.73;;;5.05;;
61104;SDS011;46987;32.638;-115.438;2022-07-24T05:58:03;21.73;;;5.78;;
61104;SDS011;46987;32.638;-115.438;2022-07-24T06:00:31;20.75;;;6.15;;
61104;SDS011;46987;32.638;-115.438;2022-07-24T06:02:58;21.77;;;5.80;;
61104;SDS011;46987;32.638;-115.438;2022-07-24T06:05:25;23.90;;;5.55;;
61104;SDS011;46987;32.638;-115.438;2022-07-24T06:07:53;21.70;;;5.80;;
61104;SDS011;46987;32.638;-115.438;2022-07-24T06:10:20;17.55;;;5.38;;
61104;SDS011;46987;32.638;-115.438;2022-07-24T06:12:49;16.65;;;5.80;;
61104;SDS011;46987;32.638;-115.438;2022-07-24T06:15:16;20.20;;;6.13;;
61104;SDS011;46987;32.638;-115.438;2022-07-24T06:17:43;34.22;;;6.07;;
61104;SDS011;46987;32.638;-115.438;2022-07-24T06:20:11;21.00;;;6.00;;
61104;SDS011;46987;32.638;-115.438;2022-07-24T06:22:38;24.48;;;6.68;;
61104;SDS011;46987;32.638;-115.438;2022-07-24T06:25:06;18.95;;;5.90;;
61104;SDS011;46987;32.638;-115.438;2022-07-24T06:27:39;21.02;;;5.70;;
61104;SDS011;46987;32.638;-115.438;2022-07-24T06:30:11;18.50;;;5.15;;
61104;SDS011;46987;32.638;-115.438;2022-07-24T06:32:39;17.98;;;5.53;;
61104;SDS011;46987;32.638;-115.438;2022-07-24T06:35:07;21.42;;;5.45;;
61104;SDS011;46987;32.638;-115.438;2022-07-24T06:37:35;19.75;;;5.25;;
61104;SDS011;46987;32.638;-115.438;2022-07-24T06:40:02;18.38;;;5.47;;
61104;SDS011;46987;32.638;-115.438;2022-07-24T06:42:34;17.17;;;5.32;;
61104;SDS011;46987;32.638;-115.438;2022-07-24T06:45:01;16.02;;;4.82;;
61104;SDS011;46987;32.638;-115.438;2022-07-24T06:47:30;22.30;;;5.35;;
61104;SDS011;46987;32.638;-115.438;2022-07-24T06:49:58;26.55;;;5.72;;
61104;SDS011;46987;32.638;-115.438;2022-07-24T06:52:25;19.33;;;5.18;;
61104;SDS011;46987;32.638;-115.438;2022-07-24T06:54:52;18.33;;;5.05;;
61104;SDS011;46987;32.638;-115.438;2022-07-24T06:57:19;24.05;;;5.45;;
61104;SDS011;46987;32.638;-115.438;2022-07-24T06:59:47;20.33;;;5.15;;
61104;SDS011;46987;32.638;-115.438;2022-07-24T07:02:14;19.45;;;5.20;;
61104;SDS011;46987;32.638;-115.438;2022-07-24T07:04:48;22.35;;;5.63;;
61104;SDS011;46987;32.638;-115.438;2022-07-24T07:07:16;20.23;;;5.60;;
61104;SDS011;46987;32.638;-115.438;2022-07-24T07:09:43;19.00;;;6.40;;
61104;SDS011;46987;32.638;-115.438;2022-07-24T07:12:11;20.00;;;5.72;;
61104;SDS011;46987;32.638;-115.438;2022-07-24T07:14:38;22.40;;;6.35;;
61104;SDS011;46987;32.638;-115.438;2022-07-24T07:17:05;23.52;;;6.25;;
61104;SDS011;46987;32.638;-115.438;2022-07-24T07:19:32;19.95;;;6.20;;
61104;SDS011;46987;32.638;-115.438;2022-07-24T07:22:01;24.10;;;6.32;;
61104;SDS011;46987;32.638;-115.438;2022-07-24T07:24:28;21.50;;;6.03;;
61104;SDS011;46987;32.638;-115.438;2022-07-24T07:26:56;20.70;;;6.15;;
61104;SDS011;46987;32.638;-115.438;2022-07-24T07:29:23;21.05;;;6.10;;
61104;SDS011;46987;32.638;-115.438;2022-07-24T07:31:50;27.85;;;6.68;;
61104;SDS011;46987;32.638;-115.438;2022-07-24T07:34:17;21.92;;;6.25;;
61104;SDS011;46987;32.638;-115.438;2022-07-24T07:36:45;21.35;;;5.82;;
61104;SDS011;46987;32.638;-115.438;2022-07-24T07:39:14;20.83;;;5.93;;
61104;SDS011;46987;32.638;-115.438;2022-07-24T07:41:41;24.27;;;6.63;;
61104;SDS011;46987;32.638;-115.438;2022-07-24T07:44:08;18.42;;;5.82;;
61104;SDS011;46987;32.638;-115.438;2022-07-24T07:46:35;22.25;;;5.28;;
61104;SDS011;46987;32.638;-115.438;2022-07-24T07:49:02;20.55;;;5.40;;
61104;SDS011;46987;32.638;-115.438;2022-07-24T07:51:30;20.33;;;5.70;;
61104;SDS011;46987;32.638;-115.438;2022-07-24T07:53:57;24.60;;;6.40;;
61104;SDS011;46987;32.638;-115.438;2022-07-24T07:56:26;22.77;;;5.97;;
61104;SDS011;46987;32.638;-115.438;2022-07-24T07:58:56;20.70;;;5.95;;
61104;SDS011;46987;32.638;-115.438;2022-07-24T08:01:23;17.90;;;5.95;;
61104;SDS011;46987;32.638;-115.438;2022-07-24T08:03:51;28.40;;;6.00;;
61104;SDS011;46987;32.638;-115.438;2022-07-24T08:06:18;23.17;;;6.70;;
61104;SDS011;46987;32.638;-115.438;2022-07-24T08:08:45;20.92;;;5.70;;
61104;SDS011;46987;32.638;-115.438;2022-07-24T08:11:13;21.45;;;6.55;;
61104;SDS011;46987;32.638;-115.438;2022-07-24T08:13:42;22.35;;;6.63;;
61104;SDS011;46987;32.638;-115.438;2022-07-24T08:16:09;23.45;;;6.47;;
61104;SDS011;46987;32.638;-115.438;2022-07-24T08:18:36;23.45;;;7.07;;
61104;SDS011;46987;32.638;-115.438;2022-07-24T08:21:03;22.45;;;5.70;;
61104;SDS011;46987;32.638;-115.438;2022-07-24T08:23:31;24.85;;;5.88;;
61104;SDS011;46987;32.638;-115.438;2022-07-24T08:25:58;23.45;;;6.55;;
61104;SDS011;46987;32.638;-115.438;2022-07-24T08:28:25;25.45;;;6.88;;
61104;SDS011;46987;32.638;-115.438;2022-07-24T08:30:55;19.85;;;5.63;;
61104;SDS011;46987;32.638;-115.438;2022-07-24T08:33:22;19.70;;;6.38;;
61104;SDS011;46987;32.638;-115.438;2022-07-24T08:35:49;21.52;;;6.47;;
61104;SDS011;46987;32.638;-115.438;2022-07-24T08:38:17;30.40;;;7.28;;
61104;SDS011;46987;32.638;-115.438;2022-07-24T08:40:45;19.70;;;6.28;;
61104;SDS011;46987;32.638;-115.438;2022-07-24T08:43:12;25.98;;;6.47;;
61104;SDS011;46987;32.638;-115.438;2022-07-24T08:45:40;27.75;;;6.70;;
61104;SDS011;46987;32.638;-115.438;2022-07-24T08:48:11;19.10;;;5.82;;
61104;SDS011;46987;32.638;-115.438;2022-07-24T08:50:39;23.90;;;6.32;;
61104;SDS011;46987;32.638;-115.438;2022-07-24T08:53:08;19.92;;;6.50;;
61104;SDS011;46987;32.638;-115.438;2022-07-24T08:55:36;22.15;;;6.20;;
61104;SDS011;46987;32.638;-115.438;2022-07-24T08:58:04;26.42;;;7.35;;
61104;SDS011;46987;32.638;-115.438;2022-07-24T09:00:32;22.13;;;6.50;;
61104;SDS011;46987;32.638;-115.438;2022-07-24T09:02:59;22.02;;;6.05;;
61104;SDS011;46987;32.638;-115.438;2022-07-24T09:05:28;21.45;;;6.35;;
61104;SDS011;46987;32.638;-115.438;2022-07-24T09:08:08;20.95;;;6.63;;
61104;SDS011;46987;32.638;-115.438;2022-07-24T09:10:36;25.33;;;7.47;;
61104;SDS011;46987;32.638;-115.438;2022-07-24T09:13:13;18.08;;;6.60;;
61104;SDS011;46987;32.638;-115.438;2022-07-24T09:15:45;24.23;;;7.28;;
61104;SDS011;46987;32.638;-115.438;2022-07-24T09:18:29;23.63;;;6.37;;
61104;SDS011;46987;32.638;-115.438;2022-07-24T09:20:59;27.10;;;6.88;;
61104;SDS011;46987;32.638;-115.438;2022-07-24T09:23:38;21.02;;;6.53;;
61104;SDS011;46987;32.638;-115.438;2022-07-24T09:26:06;20.27;;;6.05;;
61104;SDS011;46987;32.638;-115.438;2022-07-24T09:28:45;26.50;;;6.82;;
61104;SDS011;46987;32.638;-115.438;2022-07-24T09:31:14;20.55;;;6.45;;
61104;SDS011;46987;32.638;-115.438;2022-07-24T09:33:41;20.30;;;6.40;;
61104;SDS011;46987;32.638;-115.438;2022-07-24T09:36:14;24.00;;;6.53;;
61104;SDS011;46987;32.638;-115.438;2022-07-24T09:38:44;29.83;;;6.88;;
61104;SDS011;46987;32.638;-115.438;2022-07-24T09:41:18;19.38;;;6.45;;
61104;SDS011;46987;32.638;-115.438;2022-07-24T09:43:55;20.17;;;6.03;;
61104;SDS011;46987;32.638;-115.438;2022-07-24T09:46:24;23.35;;;6.20;;
61104;SDS011;46987;32.638;-115.438;2022-07-24T09:48:53;22.95;;;6.68;;
61104;SDS011;46987;32.638;-115.438;2022-07-24T09:51:25;22.00;;;6.75;;
61104;SDS011;46987;32.638;-115.438;2022-07-24T09:53:53;19.58;;;6.45;;
61104;SDS011;46987;32.638;-115.438;2022-07-24T09:56:22;21.80;;;6.35;;
61104;SDS011;46987;32.638;-115.438;2022-07-24T09:58:50;26.02;;;7.53;;
61104;SDS011;46987;32.638;-115.438;2022-07-24T10:01:20;24.55;;;6.72;;
61104;SDS011;46987;32.638;-115.438;2022-07-24T10:03:49;25.63;;;7.30;;
61104;SDS011;46987;32.638;-115.438;2022-07-24T10:06:18;19.92;;;7.38;;
61104;SDS011;46987;32.638;-115.438;2022-07-24T10:08:52;24.52;;;6.80;;
61104;SDS011;46987;32.638;-115.438;2022-07-24T10:11:22;30.40;;;7.55;;
61104;SDS011;46987;32.638;-115.438;2022-07-24T10:13:50;19.65;;;6.25;;
61104;SDS011;46987;32.638;-115.438;2022-07-24T10:16:28;22.92;;;6.65;;
61104;SDS011;46987;32.638;-115.438;2022-07-24T10:18:57;28.55;;;6.53;;
61104;SDS011;46987;32.638;-115.438;2022-07-24T10:21:26;26.52;;;7.60;;
61104;SDS011;46987;32.638;-115.438;2022-07-24T10:27:04;25.35;;;6.07;;
61104;SDS011;46987;32.638;-115.438;2022-07-24T10:29:34;24.58;;;6.30;;
61104;SDS011;46987;32.638;-115.438;2022-07-24T10:32:03;20.05;;;7.05;;
61104;SDS011;46987;32.638;-115.438;2022-07-24T10:34:32;26.20;;;7.47;;
61104;SDS011;46987;32.638;-115.438;2022-07-24T10:39:54;22.75;;;7.07;;
61104;SDS011;46987;32.638;-115.438;2022-07-24T10:42:30;21.55;;;6.70;;
61104;SDS011;46987;32.638;-115.438;2022-07-24T10:47:50;21.30;;;6.10;;
61104;SDS011;46987;32.638;-115.438;2022-07-24T10:50:21;20.40;;;6.40;;
61104;SDS011;46987;32.638;-115.438;2022-07-24T10:52:49;28.83;;;7.53;;
61104;SDS011;46987;32.638;-115.438;2022-07-24T10:55:20;22.70;;;6.93;;
61104;SDS011;46987;32.638;-115.438;2022-07-24T10:57:54;21.58;;;6.32;;
61104;SDS011;46987;32.638;-115.438;2022-07-24T11:00:24;18.58;;;6.43;;
61104;SDS011;46987;32.638;-115.438;2022-07-24T11:02:56;27.27;;;7.47;;
61104;SDS011;46987;32.638;-115.438;2022-07-24T11:10:57;25.25;;;6.82;;
61104;SDS011;46987;32.638;-115.438;2022-07-24T11:13:44;23.30;;;6.78;;
61104;SDS011;46987;32.638;-115.438;2022-07-24T11:16:24;23.38;;;6.85;;
61104;SDS011;46987;32.638;-115.438;2022-07-24T11:22:02;26.25;;;8.75;;
61104;SDS011;46987;32.638;-115.438;2022-07-24T11:24:31;23.50;;;8.63;;
61104;SDS011;46987;32.638;-115.438;2022-07-24T11:26:58;23.23;;;8.00;;
61104;SDS011;46987;32.638;-115.438;2022-07-24T11:32:02;29.02;;;8.25;;
61104;SDS011;46987;32.638;-115.438;2022-07-24T11:34:31;22.50;;;7.97;;
61104;SDS011;46987;32.638;-115.438;2022-07-24T11:37:00;26.40;;;7.43;;
61104;SDS011;46987;32.638;-115.438;2022-07-24T11:39:29;24.05;;;6.68;;
61104;SDS011;46987;32.638;-115.438;2022-07-24T11:41:58;21.80;;;6.85;;
61104;SDS011;46987;32.638;-115.438;2022-07-24T11:44:27;25.65;;;6.75;;
61104;SDS011;46987;32.638;-115.438;2022-07-24T11:46:57;24.25;;;5.85;;
61104;SDS011;46987;32.638;-115.438;2022-07-24T11:49:27;26.17;;;5.90;;
61104;SDS011;46987;32.638;-115.438;2022-07-24T11:51:54;23.95;;;6.85;;
61104;SDS011;46987;32.638;-115.438;2022-07-24T11:54:22;27.63;;;6.80;;
61104;SDS011;46987;32.638;-115.438;2022-07-24T11:56:51;29.17;;;7.40;;
61104;SDS011;46987;32.638;-115.438;2022-07-24T11:59:23;21.77;;;7.40;;
61104;SDS011;46987;32.638;-115.438;2022-07-24T12:01:51;23.43;;;6.67;;
61104;SDS011;46987;32.638;-115.438;2022-07-24T12:04:24;24.65;;;6.95;;
61104;SDS011;46987;32.638;-115.438;2022-07-24T12:06:51;20.33;;;5.25;;
61104;SDS011;46987;32.638;-115.438;2022-07-24T12:09:18;21.95;;;5.93;;
61104;SDS011;46987;32.638;-115.438;2022-07-24T12:11:45;28.10;;;6.60;;
61104;SDS011;46987;32.638;-115.438;2022-07-24T12:14:13;25.73;;;6.93;;
61104;SDS011;46987;32.638;-115.438;2022-07-24T12:16:42;27.45;;;7.85;;
61104;SDS011;46987;32.638;-115.438;2022-07-24T12:19:16;20.23;;;5.95;;
61104;SDS011;46987;32.638;-115.438;2022-07-24T12:21:46;21.50;;;6.82;;
61104;SDS011;46987;32.638;-115.438;2022-07-24T12:24:15;21.92;;;6.35;;
61104;SDS011;46987;32.638;-115.438;2022-07-24T12:26:49;22.88;;;6.53;;
61104;SDS011;46987;32.638;-115.438;2022-07-24T12:29:18;29.75;;;7.05;;
61104;SDS011;46987;32.638;-115.438;2022-07-24T12:31:46;26.77;;;6.93;;
61104;SDS011;46987;32.638;-115.438;2022-07-24T12:34:13;25.52;;;7.25;;
61104;SDS011;46987;32.638;-115.438;2022-07-24T12:36:41;23.50;;;6.00;;
61104;SDS011;46987;32.638;-115.438;2022-07-24T12:39:12;25.35;;;7.53;;
61104;SDS011;46987;32.638;-115.438;2022-07-24T12:41:43;24.58;;;6.40;;
61104;SDS011;46987;32.638;-115.438;2022-07-24T12:44:13;24.67;;;7.32;;
61104;SDS011;46987;32.638;-115.438;2022-07-24T12:46:42;27.42;;;8.02;;
61104;SDS011;46987;32.638;-115.438;2022-07-24T12:49:11;22.92;;;6.30;;
61104;SDS011;46987;32.638;-115.438;2022-07-24T12:51:46;23.88;;;6.30;;
61104;SDS011;46987;32.638;-115.438;2022-07-24T12:54:17;27.85;;;8.02;;
61104;SDS011;46987;32.638;-115.438;2022-07-24T12:56:46;21.63;;;6.28;;
61104;SDS011;46987;32.638;-115.438;2022-07-24T12:59:21;26.60;;;6.85;;
61104;SDS011;46987;32.638;-115.438;2022-07-24T13:01:52;23.25;;;6.88;;
61104;SDS011;46987;32.638;-115.438;2022-07-24T13:04:20;24.77;;;6.85;;
61104;SDS011;46987;32.638;-115.438;2022-07-24T13:06:49;30.00;;;7.97;;
61104;SDS011;46987;32.638;-115.438;2022-07-24T13:09:20;27.63;;;7.43;;
61104;SDS011;46987;32.638;-115.438;2022-07-24T13:11:49;27.30;;;7.53;;
61104;SDS011;46987;32.638;-115.438;2022-07-24T13:14:19;21.38;;;7.07;;
61104;SDS011;46987;32.638;-115.438;2022-07-24T13:16:48;26.65;;;7.45;;
61104;SDS011;46987;32.638;-115.438;2022-07-24T13:19:17;24.25;;;7.10;;
61104;SDS011;46987;32.638;-115.438;2022-07-24T13:21:45;22.38;;;6.60;;
61104;SDS011;46987;32.638;-115.438;2022-07-24T13:24:13;28.17;;;6.80;;
61104;SDS011;46987;32.638;-115.438;2022-07-24T13:26:44;21.42;;;6.07;;
61104;SDS011;46987;32.638;-115.438;2022-07-24T13:29:11;22.13;;;6.47;;
61104;SDS011;46987;32.638;-115.438;2022-07-24T13:31:39;21.73;;;7.05;;
61104;SDS011;46987;32.638;-115.438;2022-07-24T13:34:06;22.60;;;6.90;;
61104;SDS011;46987;32.638;-115.438;2022-07-24T13:36:35;28.85;;;7.32;;
61104;SDS011;46987;32.638;-115.438;2022-07-24T13:39:03;23.70;;;6.75;;
61104;SDS011;46987;32.638;-115.438;2022-07-24T13:41:31;25.52;;;7.22;;
61104;SDS011;46987;32.638;-115.438;2022-07-24T13:44:00;21.95;;;6.80;;
61104;SDS011;46987;32.638;-115.438;2022-07-24T13:46:29;22.38;;;7.72;;
61104;SDS011;46987;32.638;-115.438;2022-07-24T13:48:58;23.48;;;7.43;;
61104;SDS011;46987;32.638;-115.438;2022-07-24T13:51:27;31.60;;;7.45;;
61104;SDS011;46987;32.638;-115.438;2022-07-24T13:53:54;23.92;;;6.55;;
61104;SDS011;46987;32.638;-115.438;2022-07-24T13:56:21;27.63;;;8.23;;
61104;SDS011;46987;32.638;-115.438;2022-07-24T13:58:49;28.73;;;8.43;;
61104;SDS011;46987;32.638;-115.438;2022-07-24T14:01:18;28.00;;;8.15;;
61104;SDS011;46987;32.638;-115.438;2022-07-24T14:03:46;23.52;;;7.18;;
61104;SDS011;46987;32.638;-115.438;2022-07-24T14:06:14;24.90;;;6.68;;
61104;SDS011;46987;32.638;-115.438;2022-07-24T14:08:42;23.60;;;7.28;;
61104;SDS011;46987;32.638;-115.438;2022-07-24T14:11:09;30.10;;;7.32;;
61104;SDS011;46987;32.638;-115.438;2022-07-24T14:13:37;23.27;;;7.28;;
61104;SDS011;46987;32.638;-115.438;2022-07-24T14:16:05;26.15;;;6.95;;
61104;SDS011;46987;32.638;-115.438;2022-07-24T14:18:34;25.02;;;7.32;;
61104;SDS011;46987;32.638;-115.438;2022-07-24T14:21:01;23.92;;;6.90;;
61104;SDS011;46987;32.638;-115.438;2022-07-24T14:23:29;25.40;;;7.38;;